Terminal Aerodrome Forecast
Issued by NWS Caribou, ME

Home | Current Version | Previous Version | Text Only | Print | Product List | Glossary On
Versions: 1 2 3 4 5 6 7 8 9 10 11 12 13 14 15 16 17 18 19 20 21 22 23 24 25 26 27 28 29 30 31 32 33 34 35 36
254
FTUS41 KCAR 230819 AAA
TAFCAR
TAF AMD
KCAR 230819Z 2308/2406 00000KT 5SM BR OVC010
     FM231200 VRB03KT 6SM BR OVC012
     FM231500 33003KT P6SM OVC012
     FM231700 25004KT P6SM BKN020
     FM232100 21005KT P6SM SCT035
     FM240400 26007KT P6SM OVC025=

USA.gov is the U.S. government's official web portal to all federal, state and local government web resources and services.